createdAt,value
2022-09-05T00:02:14.815Z,5.50
2022-09-05T00:05:19.490Z,5.45
2022-09-05T00:08:06.831Z,5.17
2022-09-05T00:11:39.423Z,5.45
2022-09-05T00:13:56.660Z,6.15
2022-09-05T00:16:31.828Z,7.37
2022-09-05T00:24:11.040Z,8.15
2022-09-05T00:24:32.146Z,7.60
2022-09-05T00:25:14.345Z,6.42
2022-09-05T00:27:33.180Z,6.35
2022-09-05T00:31:28.930Z,5.45
2022-09-05T00:32:57.662Z,5.60
2022-09-05T00:35:42.487Z,5.42
2022-09-05T00:38:17.871Z,5.47
2022-09-05T00:40:57.019Z,5.92
2022-09-05T00:43:32.485Z,6.08
2022-09-05T00:46:10.881Z,5.62
2022-09-05T00:48:58.538Z,5.83
2022-09-05T00:51:55.543Z,6.15
2022-09-05T00:54:41.151Z,6.22
2022-09-05T00:57:18.691Z,5.97
2022-09-05T01:00:17.291Z,5.75
2022-09-05T01:03:17.757Z,5.40
2022-09-05T01:05:59.544Z,5.97
2022-09-05T01:08:59.983Z,5.47
2022-09-05T01:11:34.955Z,6.05
2022-09-05T01:14:42.466Z,5.65
2022-09-05T01:17:31.460Z,5.80
2022-09-05T01:20:19.007Z,5.55
2022-09-05T01:22:48.790Z,6.15
2022-09-05T01:25:29.661Z,5.45
2022-09-05T01:29:12.921Z,5.62
2022-09-05T01:30:50.870Z,6.00
2022-09-05T01:33:50.028Z,5.05
2022-09-05T01:36:31.560Z,6.47
2022-09-05T01:40:01.736Z,6.47
2022-09-05T01:44:32.160Z,6.08
2022-09-05T01:47:10.649Z,5.92
2022-09-05T01:50:02.834Z,6.22
2022-09-05T01:52:57.125Z,6.30
2022-09-05T01:55:30.955Z,6.62
2022-09-05T01:58:35.313Z,6.58
2022-09-05T02:01:25.342Z,6.00
2022-09-05T02:03:47.307Z,6.43
2022-09-05T02:06:28.766Z,5.60
2022-09-05T02:09:07.140Z,6.60
2022-09-05T02:11:48.386Z,5.72
2022-09-05T02:14:34.336Z,5.20
2022-09-05T02:17:27.211Z,6.28
2022-09-05T02:19:50.360Z,6.50
2022-09-05T02:22:25.709Z,6.28
2022-09-05T02:26:00.959Z,6.97
2022-09-05T02:28:39.485Z,5.85
2022-09-05T02:31:23.834Z,6.42
2022-09-05T02:34:01.757Z,6.92
2022-09-05T02:36:45.437Z,6.15
2022-09-05T02:45:08.247Z,6.42
2022-09-05T02:45:08.846Z,5.53
2022-09-05T02:45:30.335Z,6.87
2022-09-05T02:48:15.064Z,6.35
2022-09-05T02:57:25.576Z,6.55
2022-09-05T02:57:34.570Z,5.35
2022-09-05T02:58:06.682Z,6.37
2022-09-05T02:59:09.060Z,5.80
2022-09-05T03:01:57.072Z,6.35
2022-09-05T03:04:32.383Z,6.05
2022-09-05T03:07:22.922Z,5.92
2022-09-05T03:10:04.211Z,5.80
2022-09-05T03:12:57.635Z,5.80
2022-09-05T03:15:46.543Z,5.72
2022-09-05T03:18:41.861Z,5.70
2022-09-05T03:21:41.549Z,6.17
2022-09-05T03:24:30.870Z,6.25
2022-09-05T03:27:20.210Z,6.15
2022-09-05T03:30:12.402Z,5.70
2022-09-05T03:33:18.282Z,6.05
2022-09-05T03:36:06.743Z,6.47
2022-09-05T03:38:57.019Z,5.30
2022-09-05T03:41:50.567Z,6.30
2022-09-05T03:44:28.938Z,6.50
2022-09-05T03:47:21.176Z,5.95
2022-09-05T03:55:35.339Z,5.53
2022-09-05T03:57:20.616Z,6.50
2022-09-05T03:57:28.228Z,6.58
2022-09-05T03:58:42.032Z,5.97
2022-09-05T04:02:43.691Z,7.20
2022-09-05T04:08:13.808Z,6.08
2022-09-05T04:08:27.924Z,5.95
2022-09-05T04:09:26.677Z,5.42
2022-09-05T04:12:03.451Z,6.78
2022-09-05T04:14:36.432Z,6.05
2022-09-05T04:17:33.145Z,6.60
2022-09-05T04:20:14.797Z,6.30
2022-09-05T04:23:05.675Z,6.17
2022-09-05T04:26:11.606Z,6.05
2022-09-05T04:28:56.647Z,5.75
2022-09-05T04:32:10.768Z,6.05
2022-09-05T04:34:56.192Z,5.92
2022-09-05T04:38:01.849Z,6.62
2022-09-05T04:40:40.643Z,5.67
2022-09-05T04:43:22.212Z,6.00
2022-09-05T04:46:00.785Z,5.63
2022-09-05T04:48:39.189Z,7.05
2022-09-05T04:51:13.405Z,6.25
2022-09-05T04:54:03.777Z,7.28
2022-09-05T04:56:36.377Z,6.20
2022-09-05T05:02:49.318Z,7.15
2022-09-05T05:06:18.514Z,6.75
2022-09-05T05:06:18.911Z,6.55
2022-09-05T05:07:07.589Z,6.30
2022-09-05T05:09:40.024Z,5.65
2022-09-05T05:17:57.332Z,7.28
2022-09-05T05:17:57.484Z,6.37
2022-09-05T05:18:36.439Z,5.95
2022-09-05T05:20:50.825Z,6.28
2022-09-05T05:23:23.432Z,6.85
2022-09-05T05:28:50.285Z,6.73
2022-09-05T05:31:22.873Z,6.10
2022-09-05T05:33:55.044Z,5.87
2022-09-05T05:36:29.418Z,6.90
2022-09-05T05:41:40.983Z,6.90
2022-09-05T05:44:13.484Z,6.37
2022-09-05T05:46:48.809Z,6.25
2022-09-05T05:49:33.358Z,6.65
2022-09-05T05:52:22.562Z,6.20
2022-09-05T05:55:52.297Z,6.37
2022-09-05T05:58:11.606Z,6.37
2022-09-05T06:01:13.114Z,6.90
2022-09-05T06:04:05.362Z,6.75
2022-09-05T06:06:49.722Z,6.50
2022-09-05T06:14:49.504Z,6.20
2022-09-05T06:15:02.811Z,6.87
2022-09-05T06:15:13.391Z,5.92
2022-09-05T06:18:03.425Z,6.22
2022-09-05T06:22:07.538Z,6.35
2022-09-05T06:23:40.335Z,6.78
2022-09-05T06:26:30.147Z,5.83
2022-09-05T06:29:19.201Z,6.83
2022-09-05T06:32:06.783Z,5.55
2022-09-05T06:34:45.274Z,6.20
2022-09-05T06:37:26.755Z,6.17
2022-09-05T06:40:17.932Z,6.20
2022-09-05T06:43:03.062Z,5.67
2022-09-05T06:45:58.716Z,5.33
2022-09-05T06:51:14.954Z,5.40
2022-09-05T06:53:59.802Z,5.58
2022-09-05T06:56:41.244Z,5.92
2022-09-05T06:59:13.781Z,5.05
2022-09-05T07:02:04.300Z,6.28
2022-09-05T07:05:37.335Z,5.70
2022-09-05T07:07:20.209Z,5.45
2022-09-05T07:09:59.956Z,5.95
2022-09-05T07:15:52.343Z,5.37
2022-09-05T07:18:25.146Z,5.60
2022-09-05T07:21:17.370Z,4.73
2022-09-05T07:24:09.143Z,4.90
2022-09-05T07:26:52.273Z,4.37
2022-09-05T07:29:01.057Z,4.43
2022-09-05T07:31:37.866Z,5.22
2022-09-05T07:34:21.719Z,4.07
2022-09-05T07:37:14.145Z,4.62
2022-09-05T07:39:31.611Z,4.37
2022-09-05T07:42:06.134Z,4.62
2022-09-05T07:44:39.275Z,4.55
2022-09-05T07:47:11.827Z,4.62
2022-09-05T07:50:47.199Z,4.45
2022-09-05T07:56:50.275Z,4.87
2022-09-05T07:57:09.779Z,4.37
2022-09-05T07:57:43.720Z,4.00
2022-09-05T08:00:08.286Z,5.08
2022-09-05T08:02:51.454Z,4.75
2022-09-05T08:05:26.502Z,4.80
2022-09-05T08:07:57.762Z,4.42
2022-09-05T08:10:31.088Z,4.00
2022-09-05T08:13:24.425Z,4.50
2022-09-05T08:16:10.024Z,4.62
2022-09-05T08:18:18.862Z,4.80
2022-09-05T08:21:00.574Z,3.75
2022-09-05T08:23:52.566Z,4.15
2022-09-05T08:26:27.950Z,4.70
2022-09-05T08:29:12.217Z,4.20
2022-09-05T08:31:56.475Z,5.28
2022-09-05T08:34:46.542Z,4.40
2022-09-05T08:37:22.126Z,4.57
2022-09-05T08:40:10.114Z,4.65
2022-09-05T08:43:55.981Z,4.25
2022-09-05T08:46:43.803Z,4.30
2022-09-05T08:48:15.326Z,3.62
2022-09-05T08:50:50.696Z,3.80
2022-09-05T08:53:46.936Z,4.10
2022-09-05T08:56:22.979Z,4.67
2022-09-05T08:59:28.500Z,4.80
2022-09-05T09:02:44.984Z,4.90
2022-09-05T09:05:00.756Z,4.40
2022-09-05T09:07:48.075Z,4.10
2022-09-05T09:10:25.396Z,3.83
2022-09-05T09:13:13.718Z,5.03
2022-09-05T09:15:57.897Z,4.40
2022-09-05T09:18:34.114Z,4.37
2022-09-05T09:21:07.588Z,3.75
2022-09-05T09:23:48.797Z,3.58
2022-09-05T09:26:21.228Z,4.20
2022-09-05T09:29:02.675Z,3.72
2022-09-05T09:32:09.725Z,4.10
2022-09-05T09:34:51.781Z,4.47
2022-09-05T09:37:49.803Z,3.72
2022-09-05T09:40:40.251Z,3.83
2022-09-05T09:43:27.546Z,4.90
2022-09-05T09:46:05.850Z,3.37
2022-09-05T09:48:56.272Z,3.58
2022-09-05T09:51:29.266Z,3.72
2022-09-05T09:54:36.722Z,3.87
2022-09-05T09:57:18.257Z,3.95
2022-09-05T10:00:21.985Z,4.33
2022-09-05T10:10:02.974Z,4.55
2022-09-05T10:10:38.244Z,4.35
2022-09-05T10:10:43.464Z,3.87
2022-09-05T10:14:49.330Z,3.40
2022-09-05T10:17:32.203Z,4.30
2022-09-05T10:20:30.231Z,3.50
2022-09-05T10:23:17.738Z,3.97
2022-09-05T10:25:53.260Z,3.00
2022-09-05T10:28:46.871Z,3.67
2022-09-05T10:34:49.103Z,3.65
2022-09-05T10:35:12.865Z,3.10
2022-09-05T10:36:31.425Z,3.95
2022-09-05T10:39:21.307Z,3.20
2022-09-05T10:42:03.077Z,3.45
2022-09-05T10:44:41.868Z,3.67
2022-09-05T10:47:36.798Z,3.20
2022-09-05T10:50:24.380Z,2.95
2022-09-05T10:53:20.948Z,3.87
2022-09-05T10:56:10.360Z,3.75
2022-09-05T11:01:19.396Z,3.52
2022-09-05T11:02:26.038Z,3.42
2022-09-05T11:04:46.747Z,3.42
2022-09-05T11:07:26.657Z,3.00
2022-09-05T11:10:14.583Z,2.72
2022-09-05T11:13:03.375Z,3.20
2022-09-05T11:16:04.295Z,2.77
2022-09-05T11:18:55.200Z,3.02
2022-09-05T11:21:22.629Z,3.45
2022-09-05T11:23:58.224Z,3.27
2022-09-05T11:26:51.362Z,3.80
2022-09-05T11:29:27.596Z,3.00
2022-09-05T11:34:48.713Z,3.10
2022-09-05T11:39:59.253Z,2.58
2022-09-05T11:40:09.969Z,3.27
2022-09-05T11:41:05.281Z,3.12
2022-09-05T11:43:52.108Z,2.85
2022-09-05T11:46:44.479Z,2.77
2022-09-05T11:49:51.738Z,3.60
2022-09-05T11:52:51.770Z,2.67
2022-09-05T11:55:33.219Z,2.98
2022-09-05T11:58:43.706Z,3.22
2022-09-05T12:01:36.878Z,3.80
2022-09-05T12:03:59.628Z,3.02
2022-09-05T12:06:47.774Z,2.98
2022-09-05T12:09:38.362Z,3.22
2022-09-05T12:15:07.256Z,4.07
2022-09-05T12:18:12.470Z,3.05
2022-09-05T12:20:59.077Z,3.00
2022-09-05T12:25:15.270Z,3.87
2022-09-05T12:27:39.155Z,2.75
2022-09-05T12:29:29.183Z,2.95
2022-09-05T12:32:47.523Z,2.70
2022-09-05T12:36:07.463Z,3.93
2022-09-05T12:40:28.622Z,2.72
2022-09-05T12:41:36.613Z,3.90
2022-09-05T12:44:37.557Z,2.92
2022-09-05T12:46:01.927Z,3.05
2022-09-05T12:48:41.772Z,2.67
2022-09-05T12:51:46.120Z,3.05
2022-09-05T12:53:57.612Z,3.20
2022-09-05T13:01:20.415Z,2.75
2022-09-05T13:03:02.255Z,2.65
2022-09-05T13:03:11.724Z,2.62
2022-09-05T13:04:48.756Z,2.55
2022-09-05T13:07:21.141Z,3.07
2022-09-05T13:11:30.180Z,2.87
2022-09-05T13:14:53.613Z,2.67
2022-09-05T13:15:28.393Z,3.12
2022-09-05T13:18:12.971Z,2.92
2022-09-05T13:20:51.480Z,3.37
2022-09-05T13:23:36.698Z,2.30
2022-09-05T13:26:16.865Z,2.30
2022-09-05T13:29:10.429Z,2.37
2022-09-05T13:38:01.557Z,2.33
2022-09-05T13:38:06.457Z,2.22
2022-09-05T13:38:17.485Z,2.70
2022-09-05T13:40:05.316Z,2.27
2022-09-05T13:42:44.034Z,2.45
2022-09-05T13:45:19.304Z,2.90
2022-09-05T13:48:00.987Z,2.80
2022-09-05T13:50:33.526Z,2.67
2022-09-05T13:53:27.339Z,2.60
2022-09-05T13:56:03.543Z,2.95
2022-09-05T13:58:43.301Z,2.97
2022-09-05T14:01:44.132Z,2.33
2022-09-05T14:10:03.474Z,3.12
2022-09-05T14:12:45.006Z,3.10
2022-09-05T14:15:26.448Z,2.47
2022-09-05T14:18:21.391Z,2.67
2022-09-05T14:21:19.428Z,2.90
2022-09-05T14:23:56.305Z,2.85
2022-09-05T14:26:47.582Z,3.37
2022-09-05T14:29:23.740Z,3.17
2022-09-05T14:37:35.982Z,2.85
2022-09-05T14:37:41.283Z,2.90
2022-09-05T14:38:11.581Z,3.45
2022-09-05T14:40:59.634Z,3.22
2022-09-05T14:43:43.973Z,3.30
2022-09-05T14:46:30.738Z,3.50
2022-09-05T14:49:10.370Z,3.65
2022-09-05T14:51:43.365Z,3.15
2022-09-05T15:00:38.639Z,3.12
2022-09-05T15:02:54.501Z,3.33
2022-09-05T15:02:57.790Z,3.45
2022-09-05T15:05:15.986Z,2.95
2022-09-05T15:07:48.186Z,3.47
2022-09-05T15:12:20.229Z,3.80
2022-09-05T15:13:20.221Z,3.77
2022-09-05T15:16:02.235Z,3.52
2022-09-05T15:18:30.483Z,3.55
2022-09-05T15:21:33.520Z,3.67
2022-09-05T15:24:03.126Z,3.67
2022-09-05T15:26:34.966Z,3.37
2022-09-05T15:29:14.545Z,3.60
2022-09-05T15:31:46.639Z,3.67
2022-09-05T15:34:29.763Z,3.98
2022-09-05T15:37:20.738Z,3.83
2022-09-05T15:39:33.587Z,3.60
2022-09-05T15:42:21.417Z,3.60
2022-09-05T15:45:09.283Z,3.47
2022-09-05T15:47:25.682Z,3.30
2022-09-05T15:49:58.785Z,3.40
2022-09-05T15:52:46.682Z,3.47
2022-09-05T15:55:23.534Z,3.35
2022-09-05T15:58:04.933Z,3.77
2022-09-05T16:00:51.281Z,3.42
2022-09-05T16:05:30.443Z,2.87
2022-09-05T16:10:39.840Z,3.65
2022-09-05T16:10:42.368Z,3.98
2022-09-05T16:14:36.521Z,3.52
2022-09-05T16:23:16.741Z,4.30
2022-09-05T16:23:17.946Z,4.20
2022-09-05T16:23:35.081Z,3.57
2022-09-05T16:25:09.895Z,3.75
2022-09-05T16:27:51.606Z,4.10
2022-09-05T16:30:24.259Z,3.77
2022-09-05T16:35:33.092Z,3.85
2022-09-05T16:40:51.004Z,3.27
2022-09-05T16:43:29.239Z,2.90
2022-09-05T16:46:01.998Z,3.40
2022-09-05T16:48:46.408Z,4.22
2022-09-05T16:51:35.355Z,3.83
2022-09-05T16:54:03.339Z,3.52
2022-09-05T16:56:51.887Z,3.58
2022-09-05T16:59:24.511Z,3.85
2022-09-05T17:02:06.368Z,3.85
2022-09-05T17:04:35.370Z,3.95
2022-09-05T17:07:07.937Z,3.67
2022-09-05T17:12:21.428Z,3.50
2022-09-05T17:14:51.014Z,3.37
2022-09-05T17:18:20.441Z,4.58
2022-09-05T17:20:06.832Z,4.33
2022-09-05T17:27:08.325Z,4.10
2022-09-05T17:29:23.802Z,4.00
2022-09-05T17:29:45.780Z,3.83
2022-09-05T17:35:56.354Z,4.03
2022-09-05T17:38:40.568Z,3.85
2022-09-05T17:41:29.742Z,3.92
2022-09-05T17:44:29.475Z,3.65
2022-09-05T17:47:20.091Z,4.00
2022-09-05T17:49:54.512Z,4.67
2022-09-05T17:52:24.672Z,4.33
2022-09-05T17:54:55.540Z,4.30
2022-09-05T17:57:33.575Z,4.05
2022-09-05T18:00:12.289Z,4.37
2022-09-05T18:02:46.314Z,4.67
2022-09-05T18:05:34.493Z,3.77
2022-09-05T18:08:04.058Z,4.33
2022-09-05T18:11:01.580Z,4.12
2022-09-05T18:13:34.127Z,4.00
2022-09-05T18:16:10.812Z,3.58
2022-09-05T18:19:28.007Z,4.35
2022-09-05T18:23:54.520Z,4.42
2022-09-05T18:26:26.710Z,4.23
2022-09-05T18:29:05.803Z,3.55
2022-09-05T18:31:43.507Z,4.37
2022-09-05T18:34:24.428Z,3.80
2022-09-05T18:36:54.107Z,4.30
2022-09-05T18:39:40.531Z,3.90
2022-09-05T18:42:33.148Z,4.08
2022-09-05T18:44:59.423Z,4.92
2022-09-05T18:47:50.988Z,3.67
2022-09-05T18:50:26.223Z,4.30
2022-09-05T18:52:51.057Z,4.20
2022-09-05T18:56:12.518Z,4.08
2022-09-05T18:58:09.494Z,4.70
2022-09-05T19:03:26.977Z,5.10
2022-09-05T19:06:36.776Z,4.95
2022-09-05T19:08:47.221Z,4.10
2022-09-05T19:11:28.152Z,4.00
2022-09-05T19:14:25.675Z,4.30
2022-09-05T19:16:47.507Z,4.87
2022-09-05T19:19:18.737Z,4.78
2022-09-05T19:21:56.252Z,4.53
2022-09-05T19:24:44.653Z,4.97
2022-09-05T19:28:04.395Z,4.90
2022-09-05T19:36:52.704Z,4.40
2022-09-05T19:37:06.614Z,4.50
2022-09-05T19:37:12.359Z,3.97
2022-09-05T19:37:29.325Z,4.22
2022-09-05T19:43:44.869Z,5.10
2022-09-05T19:47:31.255Z,4.80
2022-09-05T19:47:47.913Z,5.40
2022-09-05T19:50:07.103Z,4.60
2022-09-05T19:52:41.902Z,5.15
2022-09-05T19:55:26.080Z,5.45
2022-09-05T19:58:14.886Z,4.97
2022-09-05T20:00:29.514Z,4.97
2022-09-05T20:03:01.364Z,5.12
2022-09-05T20:06:29.188Z,4.53
2022-09-05T20:08:31.829Z,4.30
2022-09-05T20:11:07.300Z,4.22
2022-09-05T20:13:36.914Z,4.37
2022-09-05T20:16:06.506Z,4.67
2022-09-05T20:18:44.384Z,4.75
2022-09-05T20:21:28.619Z,4.20
2022-09-05T20:23:59.930Z,4.53
2022-09-05T20:26:33.559Z,4.37
2022-09-05T20:29:05.702Z,5.15
2022-09-05T20:31:36.886Z,3.92
2022-09-05T20:35:32.998Z,4.25
2022-09-05T20:43:08.743Z,4.72
2022-09-05T20:43:20.298Z,5.40
2022-09-05T20:43:23.999Z,5.15
2022-09-05T20:44:50.942Z,4.60
2022-09-05T20:54:10.061Z,4.30
2022-09-05T20:54:26.660Z,4.55
2022-09-05T20:54:29.061Z,4.25
2022-09-05T20:55:38.152Z,4.28
2022-09-05T20:58:12.357Z,5.28
2022-09-05T21:01:21.819Z,4.47
2022-09-05T21:03:31.438Z,4.33
2022-09-05T21:06:16.583Z,4.70
2022-09-05T21:08:46.099Z,4.62
2022-09-05T21:11:15.796Z,4.92
2022-09-05T21:13:52.561Z,4.87
2022-09-05T21:16:25.148Z,5.10
2022-09-05T21:18:54.974Z,4.20
2022-09-05T21:21:30.289Z,5.05
2022-09-05T21:24:06.286Z,4.53
2022-09-05T21:26:34.129Z,4.72
2022-09-05T21:29:09.664Z,4.47
2022-09-05T21:31:45.063Z,4.70
2022-09-05T21:34:29.480Z,4.95
2022-09-05T21:37:07.458Z,5.17
2022-09-05T21:39:40.318Z,5.05
2022-09-05T21:43:26.166Z,4.87
2022-09-05T21:47:37.540Z,4.90
2022-09-05T21:47:47.981Z,4.33
2022-09-05T21:49:46.342Z,4.70
2022-09-05T21:52:16.485Z,4.70
2022-09-05T21:59:18.470Z,5.10
2022-09-05T21:59:19.174Z,4.92
2022-09-05T21:59:53.923Z,4.72
2022-09-05T22:04:54.119Z,4.30
2022-09-05T22:07:32.709Z,4.95
2022-09-05T22:09:57.059Z,4.65
2022-09-05T22:12:42.364Z,4.37
2022-09-05T22:15:28.784Z,4.87
2022-09-05T22:17:47.328Z,4.47
2022-09-05T22:20:23.109Z,4.92
2022-09-05T22:22:56.904Z,4.85
2022-09-05T22:25:29.495Z,4.37
2022-09-05T22:28:12.457Z,4.65
2022-09-05T22:30:43.474Z,4.20
2022-09-05T22:33:13.157Z,4.20
2022-09-05T22:35:43.013Z,5.33
2022-09-05T22:38:19.758Z,3.90
2022-09-05T22:40:45.907Z,4.47
2022-09-05T22:43:17.480Z,4.53
2022-09-05T22:45:47.099Z,4.40
2022-09-05T22:48:16.660Z,4.08
2022-09-05T22:50:46.092Z,4.30
2022-09-05T22:53:15.725Z,3.90
2022-09-05T22:55:45.321Z,4.13
2022-09-05T22:58:15.886Z,4.60
2022-09-05T23:00:45.327Z,4.42
2022-09-05T23:03:14.761Z,4.03
2022-09-05T23:05:44.392Z,4.00
2022-09-05T23:08:14.673Z,4.35
2022-09-05T23:10:44.286Z,4.73
2022-09-05T23:13:13.741Z,4.12
2022-09-05T23:15:43.374Z,5.40
2022-09-05T23:18:12.992Z,4.15
2022-09-05T23:20:42.499Z,4.72
2022-09-05T23:23:12.091Z,4.95
2022-09-05T23:25:41.750Z,4.35
2022-09-05T23:28:12.242Z,4.15
2022-09-05T23:30:41.701Z,4.10
2022-09-05T23:33:11.206Z,3.98
2022-09-05T23:35:40.812Z,4.65
2022-09-05T23:38:12.066Z,4.03
2022-09-05T23:40:41.679Z,3.95
2022-09-05T23:43:11.135Z,3.80
2022-09-05T23:45:40.798Z,3.85
2022-09-05T23:48:10.423Z,4.37
2022-09-05T23:50:39.846Z,4.20
2022-09-05T23:53:09.386Z,4.70
2022-09-05T23:55:40.588Z,4.40
2022-09-05T23:58:10.971Z,4.55
